Time;durP1;ratioP1;P1;durP2;ratioP2;P2;SDS_P1;SDS_P2;PMS_P1;PMS_P2;Temp;Humidity;BMP_temperature;BMP_pressure;BME280_temperature;BME280_humidity;BME280_pressure;Samples;Min_cycle;Max_cycle;Signal;HPM_P1;HPM_P2
2022/01/14 00:02:23;;;;;;;37.20;23.80;;;;;;;1.89;100.00;100149.77;105218;1271;69076;-73
2022/01/14 00:04:50;;;;;;;41.60;27.00;;;;;;;1.87;100.00;100154.00;105840;1271;73583;-74
2022/01/14 00:07:17;;;;;;;38.50;25.40;;;;;;;1.84;100.00;100152.97;106508;1271;61268;-74
2022/01/14 00:09:44;;;;;;;35.80;23.90;;;;;;;1.82;100.00;100153.38;106502;1271;60725;-74
2022/01/14 00:12:16;;;;;;;48.30;30.40;;;;;;;1.82;100.00;100151.61;105910;1271;75144;-74
2022/01/14 00:14:55;;;;;;;54.10;33.80;;;;;;;1.81;100.00;100150.56;105808;1271;69273;-74
2022/01/14 00:17:22;;;;;;;46.80;29.60;;;;;;;1.80;100.00;100152.69;105204;1271;72308;-74
2022/01/14 00:19:49;;;;;;;43.20;28.50;;;;;;;1.80;100.00;100152.17;105189;1271;61301;-73
2022/01/14 00:22:16;;;;;;;37.90;26.00;;;;;;;1.80;100.00;100148.67;105273;1271;62128;-74
2022/01/14 00:35:30;;;;;;;37.70;26.20;;;;;;;1.73;100.00;100130.70;105106;1271;61601;-74
2022/01/14 00:37:57;;;;;;;35.00;24.90;;;;;;;1.71;100.00;100121.61;105182;1271;74726;-73
2022/01/14 00:40:25;;;;;;;37.20;26.80;;;;;;;1.69;100.00;100120.23;105226;1271;69191;-73
2022/01/14 00:42:52;;;;;;;40.70;26.30;;;;;;;1.68;100.00;100135.67;105058;1271;74450;-75
2022/01/14 00:45:19;;;;;;;45.40;29.30;;;;;;;1.67;100.00;100137.25;104915;1271;61675;-73
2022/01/14 00:47:46;;;;;;;38.40;26.80;;;;;;;1.67;100.00;100137.61;105156;1271;61640;-72
2022/01/14 00:50:15;;;;;;;37.10;24.50;;;;;;;1.68;100.00;100139.34;105167;1271;76521;-72
2022/01/14 00:52:42;;;;;;;37.10;25.20;;;;;;;1.67;100.00;100134.98;105014;1271;68997;-72
2022/01/14 00:55:13;;;;;;;38.20;24.00;;;;;;;1.67;100.00;100144.10;105169;1271;73182;-72
2022/01/14 01:00:33;;;;;;;46.20;27.40;;;;;;;1.67;100.00;100149.00;105140;1271;62061;-73
2022/01/14 01:03:01;;;;;;;40.10;26.40;;;;;;;1.67;100.00;100157.74;105021;1271;75398;-73
2022/01/14 01:05:28;;;;;;;37.20;26.40;;;;;;;1.67;100.00;100160.20;105188;1271;70589;-73
2022/01/14 01:10:29;;;;;;;38.80;27.30;;;;;;;1.68;100.00;100145.64;105039;1271;201083;-73
2022/01/14 01:13:07;;;;;;;39.20;26.10;;;;;;;1.69;100.00;100141.96;105245;1271;61265;-73
2022/01/14 01:15:33;;;;;;;40.10;26.40;;;;;;;1.70;100.00;100144.05;104890;1271;74206;-72
2022/01/14 01:18:00;;;;;;;43.40;27.80;;;;;;;1.69;100.00;100140.02;105245;1271;61394;-72
2022/01/14 01:20:26;;;;;;;51.40;31.70;;;;;;;1.68;100.00;100129.53;105037;1271;61323;-73
2022/01/14 01:22:54;;;;;;;51.20;31.90;;;;;;;1.68;100.00;100128.84;105147;1271;61397;-73
2022/01/14 01:25:24;;;;;;;44.70;28.90;;;;;;;1.67;100.00;100113.79;105211;1270;61232;-73
2022/01/14 01:27:54;;;;;;;46.60;29.80;;;;;;;1.67;100.00;100113.25;105014;1271;76334;-73
2022/01/14 01:33:03;;;;;;;45.80;30.10;;;;;;;1.66;100.00;100115.19;105191;1271;74530;-74
2022/01/14 01:35:30;;;;;;;51.30;33.60;;;;;;;1.66;100.00;100120.27;104860;1271;61258;-74
2022/01/14 01:37:57;;;;;;;48.50;32.10;;;;;;;1.66;100.00;100132.55;105189;1271;61238;-74
2022/01/14 01:40:25;;;;;;;50.00;32.70;;;;;;;1.67;100.00;100136.21;104209;1272;1003106;-73
2022/01/14 01:42:57;;;;;;;50.60;33.50;;;;;;;1.67;100.00;100136.38;105320;1271;69256;-74
2022/01/14 01:45:26;;;;;;;48.80;31.00;;;;;;;1.67;100.00;100138.84;105312;1271;72428;-74
2022/01/14 01:47:54;;;;;;;56.80;31.40;;;;;;;1.66;100.00;100145.50;105221;1271;61393;-74
2022/01/14 01:50:26;;;;;;;53.70;35.60;;;;;;;1.66;100.00;100146.90;105160;1271;61791;-75
2022/01/14 01:52:54;;;;;;;56.90;34.60;;;;;;;1.65;100.00;100150.06;105221;1271;75337;-74
2022/01/14 01:55:22;;;;;;;54.20;34.00;;;;;;;1.65;100.00;100148.66;105330;1271;69533;-73
2022/01/14 01:57:49;;;;;;;59.70;38.20;;;;;;;1.64;100.00;100151.83;105199;1271;74441;-73
2022/01/14 02:00:20;;;;;;;53.50;36.10;;;;;;;1.62;100.00;100147.30;105172;1271;61358;-75
2022/01/14 02:02:49;;;;;;;54.60;35.70;;;;;;;1.62;100.00;100141.70;105180;1271;61260;-73
2022/01/14 02:05:17;;;;;;;44.70;30.00;;;;;;;1.62;100.00;100139.43;105235;1271;75157;-74
2022/01/14 02:07:45;;;;;;;49.20;30.40;;;;;;;1.61;100.00;100134.02;105196;1271;70293;-73
2022/01/14 02:10:12;;;;;;;40.00;26.10;;;;;;;1.61;100.00;100134.36;105076;1271;72351;-73
2022/01/14 02:12:46;;;;;;;40.80;27.70;;;;;;;1.61;100.00;100128.58;105191;1271;61269;-75
2022/01/14 02:15:27;;;;;;;40.70;26.40;;;;;;;1.60;100.00;100116.85;105112;1271;61396;-73
2022/01/14 02:23:30;;;;;;;34.10;24.10;;;;;;;1.56;100.00;100099.05;104933;1271;73425;-75
2022/01/14 02:25:57;;;;;;;;;;;;;;;1.55;100.00;100094.65;105195;1271;61481;-73
2022/01/14 02:28:23;;;;;;;37.30;25.90;;;;;;;1.54;100.00;100095.20;105178;1270;61780;-73
2022/01/14 02:30:50;;;;;;;32.80;23.60;;;;;;;1.54;100.00;100097.65;105130;1271;75637;-73
2022/01/14 02:33:19;;;;;;;35.30;26.10;;;;;;;1.54;100.00;100108.69;105170;1271;69565;-74
2022/01/14 02:35:49;;;;;;;34.80;24.50;;;;;;;1.53;100.00;100105.91;105299;1271;73411;-73
2022/01/14 02:38:16;;;;;;;34.70;24.50;;;;;;;1.52;100.00;100105.21;104890;1271;61387;-73
2022/01/14 02:40:45;;;;;;;35.50;25.60;;;;;;;1.52;100.00;100096.80;105163;1271;61722;-74
2022/01/14 02:43:14;;;;;;;38.20;25.80;;;;;;;1.52;100.00;100093.30;105227;1271;75145;-74
2022/01/14 02:45:51;;;;;;;36.10;26.70;;;;;;;1.52;100.00;100088.91;105079;1271;69788;-74
2022/01/14 02:48:21;;;;;;;37.70;26.40;;;;;;;1.52;100.00;100096.98;105094;1271;73172;-73
2022/01/14 02:56:01;;;;;;;36.60;26.10;;;;;;;1.53;100.00;100087.52;105193;1271;74198;-73
2022/01/14 02:58:30;;;;;;;30.00;23.20;;;;;;;1.53;100.00;100088.21;105207;1271;70101;-73
2022/01/14 03:01:03;;;;;;;35.50;25.00;;;;;;;1.53;100.00;100085.06;105260;1271;73090;-73
2022/01/14 03:03:31;;;;;;;32.00;22.90;;;;;;;1.53;100.00;100086.27;105217;1271;61266;-73
2022/01/14 03:06:00;;;;;;;34.20;22.60;;;;;;;1.55;100.00;100082.41;105226;1271;61825;-73
2022/01/14 03:08:28;;;;;;;31.80;24.80;;;;;;;1.54;100.00;100072.43;105246;1270;75452;-73
2022/01/14 03:11:00;;;;;;;33.80;24.80;;;;;;;1.54;100.00;100069.46;105030;1274;69351;-72
2022/01/14 03:13:28;;;;;;;32.50;22.40;;;;;;;1.55;100.00;100074.34;105280;1271;73517;-72
2022/01/14 03:15:55;;;;;;;31.60;23.60;;;;;;;1.54;100.00;100072.61;105322;1271;61328;-73
2022/01/14 03:18:31;;;;;;;30.90;23.80;;;;;;;1.53;100.00;100069.11;105219;1271;61374;-71
2022/01/14 03:21:24;;;;;;;31.70;23.20;;;;;;;1.52;100.00;100062.82;105160;1271;74761;-72
2022/01/14 03:23:51;;;;;;;31.40;22.80;;;;;;;1.51;100.00;100057.06;105147;1271;69957;-73
2022/01/14 03:26:21;;;;;;;32.20;22.80;;;;;;;1.48;100.00;100050.79;105043;1271;72091;-72
2022/01/14 03:28:48;;;;;;;30.90;22.00;;;;;;;1.47;100.00;100054.48;105180;1271;61368;-73
2022/01/14 03:31:15;;;;;;;32.00;22.80;;;;;;;1.45;100.00;100048.39;105212;1271;61338;-74
2022/01/14 03:33:42;;;;;;;33.30;23.40;;;;;;;1.45;100.00;100047.67;105171;1271;75188;-74
2022/01/14 03:36:10;;;;;;;35.40;24.10;;;;;;;1.45;100.00;100049.42;105266;1271;69379;-74
2022/01/14 03:38:37;;;;;;;32.20;23.10;;;;;;;1.45;100.00;100047.16;105142;1271;72895;-73
2022/01/14 03:41:05;;;;;;;39.70;26.00;;;;;;;1.45;100.00;100040.84;105161;1271;61346;-73
2022/01/14 03:43:32;;;;;;;34.50;23.10;;;;;;;1.44;100.00;100044.88;105310;1271;61274;-73
2022/01/14 03:45:58;;;;;;;35.40;24.20;;;;;;;1.45;100.00;100048.39;105165;1271;75254;-72
2022/01/14 03:48:25;;;;;;;32.50;23.30;;;;;;;1.46;100.00;100044.34;105170;1271;69147;-73
2022/01/14 03:50:52;;;;;;;32.70;23.20;;;;;;;1.48;100.00;100041.16;105213;1271;73165;-72
2022/01/14 03:53:18;;;;;;;31.40;21.90;;;;;;;1.50;100.00;100030.80;105178;1271;61288;-73
2022/01/14 03:55:45;;;;;;;33.00;24.20;;;;;;;1.51;100.00;100027.82;105146;1271;61265;-73
2022/01/14 03:58:12;;;;;;;34.00;23.70;;;;;;;1.52;100.00;100023.77;105203;1270;75230;-73
2022/01/14 04:00:39;;;;;;;29.70;23.20;;;;;;;1.55;100.00;100018.14;104938;1272;61386;-73
2022/01/14 04:03:07;;;;;;;30.60;22.20;;;;;;;1.58;100.00;100018.09;105186;1271;72630;-73
2022/01/14 04:05:34;;;;;;;28.70;21.50;;;;;;;1.58;100.00;100011.09;105043;1271;61367;-72
2022/01/14 04:08:01;;;;;;;33.10;23.80;;;;;;;1.60;100.00;100011.75;105220;1271;61753;-74
2022/01/14 04:10:27;;;;;;;33.90;24.90;;;;;;;1.62;100.00;100014.54;105171;1271;73391;-73
2022/01/14 04:13:11;;;;;;;31.50;22.10;;;;;;;1.63;100.00;100017.13;105195;1271;70333;-74
2022/01/14 04:15:38;;;;;;;34.30;24.40;;;;;;;1.64;100.00;100013.62;105278;1271;73476;-74
2022/01/14 04:18:15;;;;;;;31.00;23.50;;;;;;;1.65;100.00;100013.77;105240;1271;61295;-74
2022/01/14 04:20:44;;;;;;;32.00;23.50;;;;;;;1.66;100.00;100002.05;105367;1271;61295;-74
2022/01/14 04:23:11;;;;;;;33.70;23.30;;;;;;;1.67;100.00;100003.25;105162;1271;76266;-73
2022/01/14 04:25:39;;;;;;;31.50;23.70;;;;;;;1.68;100.00;99992.73;105218;1271;70297;-74
2022/01/14 04:28:07;;;;;;;34.20;23.50;;;;;;;1.69;100.00;99991.48;105308;1271;73118;-73
2022/01/14 04:30:34;;;;;;;38.80;26.20;;;;;;;1.71;100.00;99998.47;105347;1271;61310;-73
2022/01/14 04:33:02;;;;;;;32.90;23.60;;;;;;;1.72;100.00;99996.70;105240;1271;61269;-73
2022/01/14 04:35:30;;;;;;;31.70;23.60;;;;;;;1.73;100.00;99996.33;105358;1271;76212;-73
2022/01/14 04:37:57;;;;;;;33.60;23.80;;;;;;;1.75;100.00;99998.92;105349;1271;69514;-74
2022/01/14 04:40:25;;;;;;;36.70;24.80;;;;;;;1.76;100.00;99998.04;105181;1271;73190;-73
2022/01/14 04:42:53;;;;;;;31.10;22.60;;;;;;;1.79;100.00;99994.15;105237;1271;61191;-74
2022/01/14 04:48:04;;;;;;;34.60;21.90;;;;;;;1.81;100.00;99984.30;105178;1271;76394;-72
2022/01/14 04:50:31;;;;;;;41.40;27.60;;;;;;;1.81;100.00;99978.67;105240;1271;69339;-74
2022/01/14 04:52:58;;;;;;;36.30;26.10;;;;;;;1.81;100.00;99978.34;105170;1271;74478;-73
2022/01/14 04:55:26;;;;;;;39.80;27.10;;;;;;;1.80;100.00;99979.40;105230;1271;61261;-74
2022/01/14 04:57:54;;;;;;;39.80;27.10;;;;;;;1.82;100.00;99977.45;105100;1271;61895;-74
2022/01/14 05:00:24;;;;;;;40.90;26.80;;;;;;;1.82;100.00;99969.38;105183;1271;76807;-73
2022/01/14 05:02:54;;;;;;;43.80;28.10;;;;;;;1.83;100.00;99967.97;105346;1271;68675;-73
2022/01/14 05:05:25;;;;;;;33.50;24.20;;;;;;;1.84;100.00;99963.73;105242;1271;72818;-73
2022/01/14 05:07:52;;;;;;;42.20;27.60;;;;;;;1.85;100.00;99957.95;105220;1271;61209;-74
2022/01/14 05:10:34;;;;;;;43.20;26.70;;;;;;;1.85;100.00;99960.23;105168;1271;61165;-74
2022/01/14 05:13:01;;;;;;;38.00;25.80;;;;;;;1.86;100.00;99969.85;105166;1271;76398;-75
2022/01/14 05:15:29;;;;;;;41.20;27.60;;;;;;;1.87;100.00;99970.02;105171;1270;69359;-75
2022/01/14 05:17:56;;;;;;;38.60;26.20;;;;;;;1.89;100.00;99972.42;105267;1271;74169;-75
2022/01/14 05:20:22;;;;;;;36.90;25.50;;;;;;;1.90;100.00;99968.38;105130;1271;61137;-74
2022/01/14 05:22:49;;;;;;;38.00;25.40;;;;;;;1.92;100.00;99963.98;105124;1271;61398;-73
2022/01/14 05:25:15;;;;;;;39.30;25.30;;;;;;;1.93;100.00;99962.92;105225;1271;61266;-73
2022/01/14 05:27:43;;;;;;;37.10;24.90;;;;;;;1.93;100.00;99958.88;105238;1271;69406;-74
2022/01/14 05:30:12;;;;;;;33.40;24.00;;;;;;;1.91;100.00;99952.05;105249;1271;73221;-73
2022/01/14 05:32:46;;;;;;;39.30;24.80;;;;;;;1.92;100.00;99950.64;105221;1271;61204;-73
2022/01/14 05:35:17;;;;;;;30.80;20.90;;;;;;;1.92;100.00;99956.09;105184;1271;62024;-74
2022/01/14 05:37:45;;;;;;;34.00;23.20;;;;;;;1.93;100.00;99960.28;105229;1271;76090;-74
2022/01/14 05:40:13;;;;;;;36.40;22.30;;;;;;;1.94;100.00;99959.73;105300;1271;69621;-74
2022/01/14 05:42:40;;;;;;;31.40;21.30;;;;;;;1.94;100.00;99954.99;105217;1272;71336;-73
2022/01/14 05:45:09;;;;;;;36.00;22.80;;;;;;;1.93;100.00;99950.10;105108;1271;61336;-73
2022/01/14 05:47:38;;;;;;;31.30;21.40;;;;;;;1.93;100.00;99946.42;105207;1270;61830;-74
2022/01/14 05:50:09;;;;;;;30.10;20.70;;;;;;;1.95;100.00;99943.24;105238;1271;74169;-73
2022/01/14 05:52:35;;;;;;;31.70;22.70;;;;;;;1.93;100.00;99936.27;105255;1271;69444;-74
2022/01/14 05:55:02;;;;;;;35.90;23.90;;;;;;;1.93;100.00;99938.54;105183;1271;74313;-73
2022/01/14 05:57:30;;;;;;;33.20;22.70;;;;;;;1.92;100.00;99940.83;105276;1271;61418;-74
2022/01/14 05:59:57;;;;;;;40.30;25.50;;;;;;;1.92;100.00;99931.20;105262;1271;61169;-74
2022/01/14 06:02:23;;;;;;;43.40;26.20;;;;;;;1.92;100.00;99926.29;105141;1271;61291;-75
2022/01/14 06:04:50;;;;;;;35.90;23.00;;;;;;;1.90;100.00;99923.70;105246;1271;61272;-74
2022/01/14 06:07:17;;;;;;;38.50;26.50;;;;;;;1.89;100.00;99920.89;105363;1271;74218;-72
2022/01/14 06:09:43;;;;;;;36.40;24.40;;;;;;;1.89;100.00;99919.33;105444;1271;61238;-73
2022/01/14 06:12:10;;;;;;;35.70;24.60;;;;;;;1.89;100.00;99923.90;105560;1271;61195;-76
2022/01/14 06:14:36;;;;;;;34.20;23.10;;;;;;;1.89;100.00;99920.20;105611;1271;75113;-73
2022/01/14 06:17:03;;;;;;;40.10;23.30;;;;;;;1.89;100.00;99912.33;106256;1271;61236;-72
2022/01/14 06:19:30;;;;;;;34.30;23.00;;;;;;;1.89;100.00;99906.90;108246;1271;72105;-74
2022/01/14 06:21:57;;;;;;;36.20;22.80;;;;;;;1.89;100.00;99924.77;108015;1271;59447;-73
2022/01/14 06:24:23;;;;;;;39.70;23.60;;;;;;;1.90;100.00;99928.61;108125;1271;61125;-73
2022/01/14 06:26:50;;;;;;;37.00;24.50;;;;;;;1.91;100.00;99922.29;107870;1271;76099;-73
2022/01/14 06:29:18;;;;;;;32.50;23.70;;;;;;;1.90;100.00;99921.23;105112;1273;61174;-72
2022/01/14 06:31:44;;;;;;;35.30;22.10;;;;;;;1.91;100.00;99917.54;105376;1271;73284;-74
2022/01/14 06:34:14;;;;;;;31.60;22.20;;;;;;;1.91;100.00;99921.59;105261;1270;61326;-72
2022/01/14 06:36:43;;;;;;;33.30;22.70;;;;;;;1.89;100.00;99920.02;105282;1271;61867;-74
2022/01/14 06:39:11;;;;;;;30.30;19.70;;;;;;;1.88;100.00;99924.77;105259;1271;75421;-73
2022/01/14 06:41:37;;;;;;;32.20;22.30;;;;;;;1.88;100.00;99930.39;105186;1271;69316;-73
2022/01/14 06:44:05;;;;;;;33.40;22.20;;;;;;;1.87;100.00;99934.08;105208;1271;74278;-74
2022/01/14 06:46:31;;;;;;;32.80;22.40;;;;;;;1.87;100.00;99937.94;105149;1271;61396;-75
2022/01/14 06:48:58;;;;;;;34.20;23.30;;;;;;;1.86;100.00;99949.33;105159;1271;61270;-73
2022/01/14 06:51:25;;;;;;;35.70;23.90;;;;;;;1.86;100.00;99946.73;104970;1274;75321;-73
2022/01/14 06:53:52;;;;;;;33.10;22.70;;;;;;;1.86;100.00;99952.52;104941;1271;70456;-73
2022/01/14 06:56:18;;;;;;;33.80;23.80;;;;;;;1.85;100.00;99956.02;105159;1271;73234;-72
2022/01/14 06:58:45;;;;;;;32.40;22.90;;;;;;;1.85;100.00;99953.21;105162;1271;61251;-72
2022/01/14 07:01:12;;;;;;;36.60;23.20;;;;;;;1.86;100.00;99949.53;105195;1271;61348;-73
2022/01/14 07:03:39;;;;;;;29.00;21.30;;;;;;;1.86;100.00;99953.90;105184;1271;75105;-73
2022/01/14 07:06:06;;;;;;;32.30;23.30;;;;;;;1.85;100.00;99951.11;105166;1271;61237;-74
2022/01/14 07:08:32;;;;;;;37.30;23.90;;;;;;;1.85;100.00;99951.46;105183;1271;74231;-74
2022/01/14 07:10:59;;;;;;;29.10;20.60;;;;;;;1.84;100.00;99951.48;105005;1274;61270;-74
2022/01/14 07:13:25;;;;;;;29.90;20.90;;;;;;;1.84;100.00;99950.95;105203;1270;61158;-75
2022/01/14 07:15:52;;;;;;;37.10;23.10;;;;;;;1.84;100.00;99956.90;105171;1271;61250;-74
2022/01/14 07:18:18;;;;;;;30.10;21.00;;;;;;;1.85;100.00;99958.98;105210;1271;61183;-74
2022/01/14 07:20:45;;;;;;;32.50;22.20;;;;;;;1.85;100.00;99957.59;105147;1271;61201;-75
2022/01/14 07:23:12;;;;;;;35.30;22.80;;;;;;;1.85;100.00;99953.73;105155;1271;61285;-75
2022/01/14 07:25:39;;;;;;;37.50;25.60;;;;;;;1.85;100.00;99961.27;105206;1271;61217;-73
2022/01/14 07:28:06;;;;;;;42.60;25.50;;;;;;;1.85;100.00;99959.87;105118;1269;74839;-74
2022/01/14 07:30:33;;;;;;;35.80;23.50;;;;;;;1.84;100.00;99955.16;105174;1271;69153;-74
2022/01/14 07:32:59;;;;;;;39.00;26.00;;;;;;;1.83;100.00;99956.05;105186;1271;74296;-74
2022/01/14 07:35:26;;;;;;;38.60;24.70;;;;;;;1.83;100.00;99950.64;105073;1271;61391;-74
2022/01/14 07:37:52;;;;;;;40.30;26.60;;;;;;;1.82;100.00;99953.78;105004;1271;62513;-75
2022/01/14 07:40:19;;;;;;;41.60;27.70;;;;;;;1.83;100.00;99948.36;105028;1271;61284;-73
2022/01/14 07:42:46;;;;;;;39.60;25.70;;;;;;;1.83;100.00;99946.59;105278;1271;69244;-75
2022/01/14 07:45:12;;;;;;;37.40;25.30;;;;;;;1.84;100.00;99944.82;105214;1271;74007;-74
2022/01/14 07:47:39;;;;;;;40.90;25.30;;;;;;;1.83;100.00;99937.82;105276;1270;61285;-75
2022/01/14 07:50:06;;;;;;;42.90;26.60;;;;;;;1.84;100.00;99933.27;105211;1271;61284;-74
2022/01/14 07:52:33;;;;;;;42.40;27.90;;;;;;;1.86;100.00;99933.59;105195;1270;75275;-76
2022/01/14 07:54:59;;;;;;;34.10;23.80;;;;;;;1.86;100.00;99926.03;105207;1271;68115;-75
2022/01/14 07:57:26;;;;;;;43.00;25.90;;;;;;;1.87;100.00;99923.21;105164;1271;61403;-76
2022/01/14 07:59:53;;;;;;;34.50;22.10;;;;;;;1.87;100.00;99911.66;105207;1271;61429;-74
2022/01/14 08:02:21;;;;;;;38.10;25.50;;;;;;;1.88;100.00;99902.71;105207;1271;61321;-75
2022/01/14 08:04:49;;;;;;;30.80;20.40;;;;;;;1.89;100.00;99895.16;105196;1270;74582;-74
2022/01/14 08:07:21;;;;;;;29.80;20.50;;;;;;;1.90;100.00;99907.92;105326;1271;70376;-74
2022/01/14 08:09:48;;;;;;;29.70;20.40;;;;;;;1.91;100.00;99923.16;105127;1271;73373;-74
2022/01/14 08:12:15;;;;;;;32.40;21.80;;;;;;;1.92;100.00;99928.58;105202;1271;61675;-73
2022/01/14 08:14:42;;;;;;;32.60;21.30;;;;;;;1.93;100.00;99924.34;105247;1271;61255;-73
2022/01/14 08:17:09;;;;;;;31.50;20.20;;;;;;;1.96;100.00;99923.42;105198;1271;61262;-73
2022/01/14 08:19:36;;;;;;;28.50;18.50;;;;;;;1.99;100.00;99928.98;104954;1271;69138;-74
2022/01/14 08:22:06;;;;;;;28.80;19.60;;;;;;;2.00;100.00;99917.73;105106;1271;73247;-74
2022/01/14 08:24:33;;;;;;;28.80;18.80;;;;;;;2.02;100.00;99908.05;105163;1271;61371;-72
2022/01/14 08:27:00;;;;;;;30.50;20.50;;;;;;;2.05;100.00;99892.42;105142;1271;61358;-73
2022/01/14 08:29:28;;;;;;;33.40;23.70;;;;;;;2.08;100.00;99885.70;105195;1271;76405;-72
2022/01/14 08:31:55;;;;;;;31.10;20.70;;;;;;;2.13;100.00;99876.33;104960;1271;69262;-74
2022/01/14 08:34:24;;;;;;;25.00;17.00;;;;;;;2.17;100.00;99869.94;105199;1271;74236;-73
2022/01/14 08:36:51;;;;;;;26.40;18.70;;;;;;;2.22;100.00;99868.27;104998;1271;61256;-73
2022/01/14 08:39:18;;;;;;;26.60;18.80;;;;;;;2.28;100.00;99859.92;105164;1271;61270;-74
2022/01/14 08:41:45;;;;;;;25.00;16.70;;;;;;;2.29;100.00;99864.11;105173;1271;75431;-75
2022/01/14 08:44:14;;;;;;;24.40;17.10;;;;;;;2.31;100.00;99861.77;105055;1271;69439;-73
2022/01/14 08:46:42;;;;;;;33.00;18.30;;;;;;;2.32;100.00;99856.85;105242;1271;73127;-73
2022/01/14 08:49:09;;;;;;;22.80;16.80;;;;;;;2.35;100.00;99857.48;105199;1271;61371;-74
2022/01/14 08:51:37;;;;;;;26.50;18.50;;;;;;;2.37;100.00;99858.33;104978;1271;61250;-73
2022/01/14 08:54:04;;;;;;;25.60;17.40;;;;;;;2.38;100.00;99853.57;105262;1271;74910;-72
2022/01/14 08:56:32;;;;;;;22.60;16.40;;;;;;;2.41;100.00;99845.98;105130;1271;70151;-75
2022/01/14 08:58:59;;;;;;;26.20;17.60;;;;;;;2.50;100.00;99837.21;105196;1271;71379;-77
2022/01/14 09:01:26;;;;;;;27.20;17.90;;;;;;;2.57;100.00;99824.77;105148;1271;61307;-78
2022/01/14 09:03:53;;;;;;;25.10;16.80;;;;;;;2.62;100.00;99828.52;105376;1271;61291;-77
2022/01/14 09:06:20;;;;;;;25.40;17.30;;;;;;;2.68;100.00;99825.79;104997;1271;75194;-75
2022/01/14 09:08:47;;;;;;;30.40;22.40;;;;;;;2.74;100.00;99825.64;105211;1271;69433;-85
2022/01/14 09:11:14;;;;;;;24.60;17.90;;;;;;;2.79;100.00;99831.85;105098;1271;73653;-73
2022/01/14 09:13:40;;;;;;;29.70;18.20;;;;;;;2.83;100.00;99829.33;105453;1271;61274;-73
2022/01/14 09:16:07;;;;;;;21.00;16.60;;;;;;;2.86;100.00;99822.56;105287;1271;61818;-71
2022/01/14 09:18:33;;;;;;;25.00;15.20;;;;;;;2.89;100.00;99814.60;105248;1271;76041;-70
2022/01/14 09:21:00;;;;;;;25.00;16.70;;;;;;;2.90;100.00;99810.53;104981;1271;69309;-71
2022/01/14 09:23:28;;;;;;;27.30;18.90;;;;;;;2.92;100.00;99805.24;105073;1271;74304;-72
2022/01/14 09:25:56;;;;;;;32.80;21.40;;;;;;;2.95;100.00;99806.77;105248;1271;61233;-72
2022/01/14 09:28:23;;;;;;;31.80;21.70;;;;;;;2.95;100.00;99812.73;105188;1271;62249;-71
2022/01/14 09:30:49;;;;;;;36.60;23.80;;;;;;;2.94;100.00;99808.69;105264;1271;76202;-72
2022/01/14 09:33:17;;;;;;;41.70;25.90;;;;;;;2.96;100.00;99799.36;105146;1271;69641;-72
2022/01/14 09:35:46;;;;;;;43.40;27.10;;;;;;;2.97;100.00;99801.95;105278;1271;73440;-73
2022/01/14 09:38:13;;;;;;;40.60;25.20;;;;;;;2.97;100.00;99797.06;105428;1271;61383;-71
2022/01/14 09:40:44;;;;;;;38.40;26.20;;;;;;;2.94;99.92;99795.00;105417;1271;62249;-70
2022/01/14 09:43:12;;;;;;;45.40;28.90;;;;;;;2.94;100.00;99790.27;105402;1271;76495;-72
2022/01/14 09:45:39;;;;;;;46.20;27.20;;;;;;;2.98;99.97;99784.90;105232;1271;69296;-71
2022/01/14 09:48:06;;;;;;;40.00;25.60;;;;;;;2.99;99.98;99791.38;105416;1271;73586;-71
2022/01/14 09:50:33;;;;;;;42.20;25.70;;;;;;;2.97;99.85;99792.30;105355;1271;61301;-72
2022/01/14 09:52:59;;;;;;;36.60;22.80;;;;;;;2.96;99.84;99790.59;105350;1271;61323;-73
2022/01/14 09:55:26;;;;;;;43.70;28.90;;;;;;;2.93;99.83;99792.05;105990;1271;76329;-72
2022/01/14 09:57:57;;;;;;;37.30;24.80;;;;;;;2.96;100.00;99791.99;106180;1271;70231;-70
2022/01/14 10:00:24;;;;;;;41.30;27.10;;;;;;;3.00;99.77;99786.79;106499;1271;72241;-72
2022/01/14 10:02:51;;;;;;;45.80;29.80;;;;;;;3.00;99.60;99775.91;106772;1271;61244;-73
2022/01/14 10:05:37;;;;;;;33.80;23.90;;;;;;;2.99;99.55;99777.34;105414;1271;61265;-72
2022/01/14 10:08:14;;;;;;;30.40;22.10;;;;;;;2.96;99.54;99783.89;105288;1271;75231;-71
2022/01/14 10:10:47;;;;;;;31.80;21.60;;;;;;;2.96;99.55;99779.86;105261;1271;69771;-72
2022/01/14 10:13:30;;;;;;;32.70;22.00;;;;;;;2.98;99.55;99776.31;105063;1271;73554;-70
2022/01/14 10:16:06;;;;;;;33.00;22.50;;;;;;;2.97;99.60;99768.77;105195;1271;61291;-72
2022/01/14 10:18:35;;;;;;;37.80;25.50;;;;;;;3.00;99.61;99759.23;105030;1271;61290;-71
2022/01/14 10:21:10;;;;;;;42.70;27.30;;;;;;;3.05;99.53;99754.21;105517;1271;76427;-72
2022/01/14 10:23:48;;;;;;;37.40;25.30;;;;;;;3.07;99.54;99753.61;105242;1271;70697;-71
2022/01/14 10:26:17;;;;;;;43.80;29.20;;;;;;;3.08;99.52;99753.25;105151;1270;74223;-71
2022/01/14 10:28:56;;;;;;;42.10;27.50;;;;;;;3.09;99.20;99751.65;105198;1271;61393;-71
2022/01/14 10:31:31;;;;;;;40.90;26.50;;;;;;;3.07;99.32;99739.22;105229;1268;61395;-72
2022/01/14 10:34:15;;;;;;;47.40;29.50;;;;;;;3.06;99.37;99732.92;105146;1271;76906;-74
2022/01/14 10:36:46;;;;;;;36.90;24.90;;;;;;;3.07;99.39;99727.82;105478;1271;68288;-76
2022/01/14 10:39:23;;;;;;;37.90;24.70;;;;;;;3.07;99.34;99732.90;105151;1271;74583;-73
2022/01/14 10:41:52;;;;;;;34.20;23.30;;;;;;;3.10;99.28;99730.39;105081;1271;61281;-74
2022/01/14 10:44:28;;;;;;;36.90;25.30;;;;;;;3.11;99.37;99720.89;104987;1271;61326;-74
2022/01/14 10:47:11;;;;;;;33.70;22.80;;;;;;;3.11;99.49;99716.14;105246;1271;76350;-74
2022/01/14 10:49:38;;;;;;;39.00;24.80;;;;;;;3.13;99.48;99714.34;105303;1271;69925;-73
2022/01/14 10:52:15;;;;;;;38.00;26.60;;;;;;;3.13;99.40;99711.89;105225;1271;73443;-72
2022/01/14 10:54:48;;;;;;;37.00;25.80;;;;;;;3.15;99.40;99703.77;105238;1271;61279;-74
2022/01/14 10:57:18;;;;;;;32.80;23.60;;;;;;;3.12;99.22;99715.06;105242;1270;61276;-73
2022/01/14 10:59:47;;;;;;;32.00;22.10;;;;;;;3.09;99.23;99717.95;104975;1271;76407;-74
2022/01/14 11:02:36;;;;;;;28.80;22.20;;;;;;;3.08;99.32;99719.19;105246;1271;70653;-75
2022/01/14 11:05:09;;;;;;;37.10;24.90;;;;;;;3.08;99.13;99707.44;105212;1271;75016;-72
2022/01/14 11:07:36;;;;;;;30.20;22.40;;;;;;;3.05;99.30;99701.02;105243;1271;61265;-71
2022/01/14 11:10:23;;;;;;;30.80;22.30;;;;;;;3.05;99.41;99695.94;105224;1271;61844;-74
2022/01/14 11:12:52;;;;;;;33.40;22.20;;;;;;;3.04;99.36;99690.67;105241;1271;76311;-75
2022/01/14 11:15:21;;;;;;;29.20;20.40;;;;;;;3.06;99.34;99689.23;105203;1271;70360;-72
2022/01/14 11:17:53;;;;;;;28.70;20.30;;;;;;;3.07;99.23;99682.19;105410;1271;74435;-74
2022/01/14 11:20:28;;;;;;;33.40;21.20;;;;;;;3.07;99.24;99674.62;105235;1271;61361;-73
2022/01/14 11:26:02;;;;;;;32.20;21.50;;;;;;;3.11;99.28;99657.32;105173;1271;75492;-73
2022/01/14 11:28:42;;;;;;;31.80;22.60;;;;;;;3.14;99.27;99652.86;105272;1271;70163;-74
2022/01/14 11:31:31;;;;;;;28.60;21.10;;;;;;;3.14;99.08;99643.37;105253;1271;73497;-75
2022/01/14 11:34:00;;;;;;;28.10;19.40;;;;;;;3.15;99.21;99631.77;105219;1271;61384;-74
2022/01/14 11:36:56;;;;;;;29.90;20.70;;;;;;;3.18;99.38;99638.17;105245;1271;61362;-73
2022/01/14 11:39:28;;;;;;;31.30;21.70;;;;;;;3.23;99.59;99636.46;105209;1271;76380;-73
2022/01/14 11:41:57;;;;;;;27.20;19.50;;;;;;;3.25;99.22;99638.88;105296;1271;69434;-75
2022/01/14 11:45:00;;;;;;;29.20;21.40;;;;;;;3.26;99.24;99642.54;105185;1271;74355;-75
2022/01/14 11:47:37;;;;;;;29.40;20.50;;;;;;;3.25;99.18;99651.35;104501;1279;61286;-73
2022/01/14 11:50:07;;;;;;;30.00;22.20;;;;;;;3.25;99.19;99642.36;104529;1279;62082;-73
2022/01/14 11:52:35;;;;;;;28.60;21.20;;;;;;;3.26;99.12;99639.02;104537;1279;76264;-73
2022/01/14 11:55:03;;;;;;;28.30;20.60;;;;;;;3.28;99.24;99638.79;104503;1279;69241;-74